sensor_id;sensor_type;location;lat;lon;timestamp;P1;durP1;ratioP1;P2;durP2;ratioP2
74674;SDS011;63200;48.810;12.352;2023-07-29T00:01:35;2.63;;;2.42;;
74674;SDS011;63200;48.810;12.352;2023-07-29T00:04:01;2.13;;;1.90;;
74674;SDS011;63200;48.810;12.352;2023-07-29T00:06:26;2.20;;;2.10;;
74674;SDS011;63200;48.810;12.352;2023-07-29T00:08:52;3.33;;;2.10;;
74674;SDS011;63200;48.810;12.352;2023-07-29T00:11:17;3.42;;;2.50;;
74674;SDS011;63200;48.810;12.352;2023-07-29T00:13:43;2.08;;;1.98;;
74674;SDS011;63200;48.810;12.352;2023-07-29T00:16:08;2.05;;;1.95;;
74674;SDS011;63200;48.810;12.352;2023-07-29T00:18:33;2.00;;;1.90;;
74674;SDS011;63200;48.810;12.352;2023-07-29T00:20:59;2.33;;;2.20;;
74674;SDS011;63200;48.810;12.352;2023-07-29T00:23:24;2.00;;;1.90;;
74674;SDS011;63200;48.810;12.352;2023-07-29T00:25:49;2.40;;;2.20;;
74674;SDS011;63200;48.810;12.352;2023-07-29T00:28:15;3.22;;;2.47;;
74674;SDS011;63200;48.810;12.352;2023-07-29T00:30:40;2.80;;;2.15;;
74674;SDS011;63200;48.810;12.352;2023-07-29T00:33:05;2.35;;;2.15;;
74674;SDS011;63200;48.810;12.352;2023-07-29T00:35:31;3.60;;;2.35;;
74674;SDS011;63200;48.810;12.352;2023-07-29T00:37:56;2.20;;;2.10;;
74674;SDS011;63200;48.810;12.352;2023-07-29T00:40:22;3.42;;;2.35;;
74674;SDS011;63200;48.810;12.352;2023-07-29T00:42:48;2.45;;;2.25;;
74674;SDS011;63200;48.810;12.352;2023-07-29T00:45:14;2.03;;;1.92;;
74674;SDS011;63200;48.810;12.352;2023-07-29T00:47:39;3.38;;;2.17;;
74674;SDS011;63200;48.810;12.352;2023-07-29T00:50:07;2.50;;;2.30;;
74674;SDS011;63200;48.810;12.352;2023-07-29T00:52:35;2.47;;;2.38;;
74674;SDS011;63200;48.810;12.352;2023-07-29T00:55:00;4.10;;;2.47;;
74674;SDS011;63200;48.810;12.352;2023-07-29T00:57:26;2.55;;;2.40;;
74674;SDS011;63200;48.810;12.352;2023-07-29T00:59:54;2.60;;;2.40;;
74674;SDS011;63200;48.810;12.352;2023-07-29T01:02:19;2.28;;;2.20;;
74674;SDS011;63200;48.810;12.352;2023-07-29T01:04:45;2.60;;;2.50;;
74674;SDS011;63200;48.810;12.352;2023-07-29T01:07:21;2.60;;;2.47;;
74674;SDS011;63200;48.810;12.352;2023-07-29T01:18:21;3.08;;;2.65;;
74674;SDS011;63200;48.810;12.352;2023-07-29T01:20:48;2.92;;;2.58;;
74674;SDS011;63200;48.810;12.352;2023-07-29T01:23:23;3.60;;;2.53;;
74674;SDS011;63200;48.810;12.352;2023-07-29T01:25:55;2.80;;;2.65;;
74674;SDS011;63200;48.810;12.352;2023-07-29T01:28:20;3.13;;;2.92;;
74674;SDS011;63200;48.810;12.352;2023-07-29T01:30:46;5.80;;;3.13;;
74674;SDS011;63200;48.810;12.352;2023-07-29T01:33:18;3.22;;;3.00;;
74674;SDS011;63200;48.810;12.352;2023-07-29T01:36:03;5.22;;;3.05;;
74674;SDS011;63200;48.810;12.352;2023-07-29T01:38:34;2.80;;;2.63;;
74674;SDS011;63200;48.810;12.352;2023-07-29T01:41:02;3.50;;;3.20;;
74674;SDS011;63200;48.810;12.352;2023-07-29T01:43:31;3.55;;;3.25;;
74674;SDS011;63200;48.810;12.352;2023-07-29T01:45:57;3.30;;;2.90;;
74674;SDS011;63200;48.810;12.352;2023-07-29T01:48:22;3.45;;;3.25;;
74674;SDS011;63200;48.810;12.352;2023-07-29T01:50:48;4.50;;;3.30;;
74674;SDS011;63200;48.810;12.352;2023-07-29T01:53:14;3.42;;;3.22;;
74674;SDS011;63200;48.810;12.352;2023-07-29T01:55:40;5.78;;;3.15;;
74674;SDS011;63200;48.810;12.352;2023-07-29T01:58:05;10.32;;;3.72;;
74674;SDS011;63200;48.810;12.352;2023-07-29T02:00:31;4.18;;;3.28;;
74674;SDS011;63200;48.810;12.352;2023-07-29T02:02:56;6.85;;;4.40;;
74674;SDS011;63200;48.810;12.352;2023-07-29T02:05:21;4.32;;;3.30;;
74674;SDS011;63200;48.810;12.352;2023-07-29T02:07:46;4.45;;;3.53;;
74674;SDS011;63200;48.810;12.352;2023-07-29T02:10:12;5.72;;;3.38;;
74674;SDS011;63200;48.810;12.352;2023-07-29T02:12:37;4.25;;;3.35;;
74674;SDS011;63200;48.810;12.352;2023-07-29T02:15:03;3.25;;;3.03;;
74674;SDS011;63200;48.810;12.352;2023-07-29T02:17:29;4.15;;;3.33;;
74674;SDS011;63200;48.810;12.352;2023-07-29T02:19:55;4.70;;;3.83;;
74674;SDS011;63200;48.810;12.352;2023-07-29T02:22:20;5.25;;;3.42;;
74674;SDS011;63200;48.810;12.352;2023-07-29T02:24:45;5.95;;;4.10;;
74674;SDS011;63200;48.810;12.352;2023-07-29T02:27:11;5.57;;;3.30;;
74674;SDS011;63200;48.810;12.352;2023-07-29T02:29:37;4.68;;;3.83;;
74674;SDS011;63200;48.810;12.352;2023-07-29T02:32:02;6.45;;;3.55;;
74674;SDS011;63200;48.810;12.352;2023-07-29T02:34:28;6.22;;;3.85;;
74674;SDS011;63200;48.810;12.352;2023-07-29T02:36:53;5.63;;;3.40;;
74674;SDS011;63200;48.810;12.352;2023-07-29T02:39:19;3.65;;;3.35;;
74674;SDS011;63200;48.810;12.352;2023-07-29T02:41:44;3.78;;;2.80;;
74674;SDS011;63200;48.810;12.352;2023-07-29T02:44:10;4.95;;;3.38;;
74674;SDS011;63200;48.810;12.352;2023-07-29T02:46:35;5.50;;;3.40;;
74674;SDS011;63200;48.810;12.352;2023-07-29T02:49:03;6.28;;;3.33;;
74674;SDS011;63200;48.810;12.352;2023-07-29T02:51:29;4.82;;;2.90;;
74674;SDS011;63200;48.810;12.352;2023-07-29T02:53:55;3.60;;;3.30;;
74674;SDS011;63200;48.810;12.352;2023-07-29T02:56:21;4.93;;;3.10;;
74674;SDS011;63200;48.810;12.352;2023-07-29T02:58:46;3.83;;;3.10;;
74674;SDS011;63200;48.810;12.352;2023-07-29T03:01:11;3.15;;;2.95;;
74674;SDS011;63200;48.810;12.352;2023-07-29T03:03:37;21.33;;;3.45;;
74674;SDS011;63200;48.810;12.352;2023-07-29T03:06:03;14.88;;;3.03;;
74674;SDS011;63200;48.810;12.352;2023-07-29T03:08:33;63.33;;;3.85;;
74674;SDS011;63200;48.810;12.352;2023-07-29T03:11:04;14.70;;;3.40;;
74674;SDS011;63200;48.810;12.352;2023-07-29T03:13:31;4.05;;;2.15;;
74674;SDS011;63200;48.810;12.352;2023-07-29T03:16:04;8.82;;;2.95;;
74674;SDS011;63200;48.810;12.352;2023-07-29T03:18:30;15.35;;;2.95;;
74674;SDS011;63200;48.810;12.352;2023-07-29T03:20:55;6.25;;;2.60;;
74674;SDS011;63200;48.810;12.352;2023-07-29T03:23:21;2.25;;;2.15;;
74674;SDS011;63200;48.810;12.352;2023-07-29T03:25:48;4.90;;;2.70;;
74674;SDS011;63200;48.810;12.352;2023-07-29T03:28:16;6.53;;;2.65;;
74674;SDS011;63200;48.810;12.352;2023-07-29T03:30:41;11.13;;;3.42;;
74674;SDS011;63200;48.810;12.352;2023-07-29T03:33:07;13.07;;;3.70;;
74674;SDS011;63200;48.810;12.352;2023-07-29T03:35:32;8.70;;;2.97;;
74674;SDS011;63200;48.810;12.352;2023-07-29T03:37:57;5.25;;;3.25;;
74674;SDS011;63200;48.810;12.352;2023-07-29T03:40:23;6.07;;;2.88;;
74674;SDS011;63200;48.810;12.352;2023-07-29T03:42:48;4.00;;;2.67;;
74674;SDS011;63200;48.810;12.352;2023-07-29T03:45:14;5.03;;;3.33;;
74674;SDS011;63200;48.810;12.352;2023-07-29T03:47:39;4.07;;;3.33;;
74674;SDS011;63200;48.810;12.352;2023-07-29T03:50:05;5.32;;;2.90;;
74674;SDS011;63200;48.810;12.352;2023-07-29T03:52:30;3.47;;;3.17;;
74674;SDS011;63200;48.810;12.352;2023-07-29T03:54:56;3.47;;;3.05;;
74674;SDS011;63200;48.810;12.352;2023-07-29T03:57:21;2.72;;;2.63;;
74674;SDS011;63200;48.810;12.352;2023-07-29T03:59:47;5.22;;;2.65;;
74674;SDS011;63200;48.810;12.352;2023-07-29T04:02:12;5.20;;;2.75;;
74674;SDS011;63200;48.810;12.352;2023-07-29T04:04:37;7.45;;;2.72;;
74674;SDS011;63200;48.810;12.352;2023-07-29T04:07:03;9.85;;;2.92;;
74674;SDS011;63200;48.810;12.352;2023-07-29T04:09:28;118.10;;;5.00;;
74674;SDS011;63200;48.810;12.352;2023-07-29T04:11:53;7.43;;;2.55;;
74674;SDS011;63200;48.810;12.352;2023-07-29T04:14:19;3.05;;;2.50;;
74674;SDS011;63200;48.810;12.352;2023-07-29T04:16:44;3.05;;;2.55;;
74674;SDS011;63200;48.810;12.352;2023-07-29T04:19:10;26.40;;;3.40;;
74674;SDS011;63200;48.810;12.352;2023-07-29T04:21:35;34.28;;;2.97;;
74674;SDS011;63200;48.810;12.352;2023-07-29T04:24:00;48.10;;;3.60;;
74674;SDS011;63200;48.810;12.352;2023-07-29T04:26:26;8.18;;;2.65;;
74674;SDS011;63200;48.810;12.352;2023-07-29T04:28:51;6.90;;;3.05;;
74674;SDS011;63200;48.810;12.352;2023-07-29T04:31:16;3.60;;;3.40;;
74674;SDS011;63200;48.810;12.352;2023-07-29T04:33:42;4.05;;;3.38;;
74674;SDS011;63200;48.810;12.352;2023-07-29T04:36:07;3.63;;;3.28;;
74674;SDS011;63200;48.810;12.352;2023-07-29T04:38:32;7.28;;;3.40;;
74674;SDS011;63200;48.810;12.352;2023-07-29T04:40:58;3.88;;;3.33;;
74674;SDS011;63200;48.810;12.352;2023-07-29T04:43:31;4.13;;;3.58;;
74674;SDS011;63200;48.810;12.352;2023-07-29T04:45:57;4.45;;;3.30;;
74674;SDS011;63200;48.810;12.352;2023-07-29T04:48:22;5.18;;;3.20;;
74674;SDS011;63200;48.810;12.352;2023-07-29T04:50:48;3.83;;;3.30;;
74674;SDS011;63200;48.810;12.352;2023-07-29T04:53:13;5.03;;;3.28;;
74674;SDS011;63200;48.810;12.352;2023-07-29T04:55:40;3.92;;;3.30;;
74674;SDS011;63200;48.810;12.352;2023-07-29T04:58:07;4.25;;;3.60;;
74674;SDS011;63200;48.810;12.352;2023-07-29T05:00:32;4.55;;;4.07;;
74674;SDS011;63200;48.810;12.352;2023-07-29T05:02:58;3.97;;;3.67;;
74674;SDS011;63200;48.810;12.352;2023-07-29T05:05:24;7.15;;;3.90;;
74674;SDS011;63200;48.810;12.352;2023-07-29T05:07:49;5.15;;;3.47;;
74674;SDS011;63200;48.810;12.352;2023-07-29T05:10:14;9.32;;;3.78;;
74674;SDS011;63200;48.810;12.352;2023-07-29T05:12:40;5.93;;;3.80;;
74674;SDS011;63200;48.810;12.352;2023-07-29T05:15:05;4.90;;;3.78;;
74674;SDS011;63200;48.810;12.352;2023-07-29T05:17:31;9.80;;;4.35;;
74674;SDS011;63200;48.810;12.352;2023-07-29T05:19:56;7.28;;;3.85;;
74674;SDS011;63200;48.810;12.352;2023-07-29T05:22:22;3.90;;;3.63;;
74674;SDS011;63200;48.810;12.352;2023-07-29T05:24:47;5.10;;;4.43;;
74674;SDS011;63200;48.810;12.352;2023-07-29T05:27:12;6.05;;;4.30;;
74674;SDS011;63200;48.810;12.352;2023-07-29T05:29:37;4.70;;;3.95;;
74674;SDS011;63200;48.810;12.352;2023-07-29T05:32:03;5.35;;;3.92;;
74674;SDS011;63200;48.810;12.352;2023-07-29T05:34:28;10.05;;;5.10;;
74674;SDS011;63200;48.810;12.352;2023-07-29T05:36:54;5.32;;;4.50;;
74674;SDS011;63200;48.810;12.352;2023-07-29T05:39:19;4.90;;;4.50;;
74674;SDS011;63200;48.810;12.352;2023-07-29T05:41:44;7.13;;;4.35;;
74674;SDS011;63200;48.810;12.352;2023-07-29T05:44:10;4.85;;;4.45;;
74674;SDS011;63200;48.810;12.352;2023-07-29T05:46:36;5.25;;;4.15;;
74674;SDS011;63200;48.810;12.352;2023-07-29T05:49:01;6.47;;;4.40;;
74674;SDS011;63200;48.810;12.352;2023-07-29T05:51:27;8.60;;;5.25;;
74674;SDS011;63200;48.810;12.352;2023-07-29T05:53:53;6.53;;;4.82;;
74674;SDS011;63200;48.810;12.352;2023-07-29T05:56:18;4.60;;;4.07;;
74674;SDS011;63200;48.810;12.352;2023-07-29T05:58:44;4.97;;;4.00;;
74674;SDS011;63200;48.810;12.352;2023-07-29T06:01:09;5.15;;;4.03;;
74674;SDS011;63200;48.810;12.352;2023-07-29T06:03:34;8.23;;;4.70;;
74674;SDS011;63200;48.810;12.352;2023-07-29T06:06:00;4.30;;;4.00;;
74674;SDS011;63200;48.810;12.352;2023-07-29T06:08:25;4.50;;;4.10;;
74674;SDS011;63200;48.810;12.352;2023-07-29T06:10:53;13.02;;;4.68;;
74674;SDS011;63200;48.810;12.352;2023-07-29T06:13:18;7.30;;;3.90;;
74674;SDS011;63200;48.810;12.352;2023-07-29T06:15:44;5.45;;;4.03;;
74674;SDS011;63200;48.810;12.352;2023-07-29T06:18:09;5.80;;;4.30;;
74674;SDS011;63200;48.810;12.352;2023-07-29T06:20:34;4.80;;;3.83;;
74674;SDS011;63200;48.810;12.352;2023-07-29T06:23:00;4.15;;;3.75;;
74674;SDS011;63200;48.810;12.352;2023-07-29T06:25:25;5.72;;;3.38;;
74674;SDS011;63200;48.810;12.352;2023-07-29T06:27:50;5.18;;;3.45;;
74674;SDS011;63200;48.810;12.352;2023-07-29T06:30:16;5.03;;;3.17;;
74674;SDS011;63200;48.810;12.352;2023-07-29T06:32:41;3.45;;;3.15;;
74674;SDS011;63200;48.810;12.352;2023-07-29T06:35:06;4.70;;;3.10;;
74674;SDS011;63200;48.810;12.352;2023-07-29T06:37:32;2.85;;;2.72;;
74674;SDS011;63200;48.810;12.352;2023-07-29T06:39:58;3.58;;;2.72;;
74674;SDS011;63200;48.810;12.352;2023-07-29T06:42:23;4.07;;;2.80;;
74674;SDS011;63200;48.810;12.352;2023-07-29T06:44:49;2.83;;;2.58;;
74674;SDS011;63200;48.810;12.352;2023-07-29T06:47:14;3.00;;;2.70;;
74674;SDS011;63200;48.810;12.352;2023-07-29T06:49:39;3.20;;;2.90;;
74674;SDS011;63200;48.810;12.352;2023-07-29T06:52:05;2.83;;;2.63;;
74674;SDS011;63200;48.810;12.352;2023-07-29T06:54:30;2.42;;;2.22;;
74674;SDS011;63200;48.810;12.352;2023-07-29T06:56:55;2.47;;;2.30;;
74674;SDS011;63200;48.810;12.352;2023-07-29T06:59:21;3.13;;;2.47;;
74674;SDS011;63200;48.810;12.352;2023-07-29T07:01:46;6.18;;;3.00;;
74674;SDS011;63200;48.810;12.352;2023-07-29T07:04:11;2.60;;;2.50;;
74674;SDS011;63200;48.810;12.352;2023-07-29T07:06:37;2.90;;;2.33;;
74674;SDS011;63200;48.810;12.352;2023-07-29T07:09:02;2.30;;;2.20;;
74674;SDS011;63200;48.810;12.352;2023-07-29T07:11:28;2.70;;;2.38;;
74674;SDS011;63200;48.810;12.352;2023-07-29T07:13:53;4.97;;;2.42;;
74674;SDS011;63200;48.810;12.352;2023-07-29T07:16:19;2.83;;;2.67;;
74674;SDS011;63200;48.810;12.352;2023-07-29T07:18:44;2.50;;;2.40;;
74674;SDS011;63200;48.810;12.352;2023-07-29T07:21:09;2.55;;;2.20;;
74674;SDS011;63200;48.810;12.352;2023-07-29T07:23:35;2.50;;;2.40;;
74674;SDS011;63200;48.810;12.352;2023-07-29T07:26:01;2.65;;;2.55;;
74674;SDS011;63200;48.810;12.352;2023-07-29T07:28:26;3.10;;;2.33;;
74674;SDS011;63200;48.810;12.352;2023-07-29T07:30:52;3.88;;;2.30;;
74674;SDS011;63200;48.810;12.352;2023-07-29T07:33:17;3.97;;;2.58;;
74674;SDS011;63200;48.810;12.352;2023-07-29T07:35:43;4.05;;;2.60;;
74674;SDS011;63200;48.810;12.352;2023-07-29T07:38:08;2.80;;;2.60;;
74674;SDS011;63200;48.810;12.352;2023-07-29T07:40:35;2.97;;;2.60;;
74674;SDS011;63200;48.810;12.352;2023-07-29T07:43:01;5.82;;;2.60;;
74674;SDS011;63200;48.810;12.352;2023-07-29T07:45:26;3.45;;;2.38;;
74674;SDS011;63200;48.810;12.352;2023-07-29T07:47:52;3.25;;;2.53;;
74674;SDS011;63200;48.810;12.352;2023-07-29T07:50:21;2.65;;;2.45;;
74674;SDS011;63200;48.810;12.352;2023-07-29T07:52:46;3.55;;;2.47;;
74674;SDS011;63200;48.810;12.352;2023-07-29T07:55:12;3.25;;;2.25;;
74674;SDS011;63200;48.810;12.352;2023-07-29T07:57:37;2.75;;;2.55;;
74674;SDS011;63200;48.810;12.352;2023-07-29T08:00:03;3.20;;;2.90;;
74674;SDS011;63200;48.810;12.352;2023-07-29T08:02:29;2.65;;;2.45;;
74674;SDS011;63200;48.810;12.352;2023-07-29T08:04:55;3.65;;;2.97;;
74674;SDS011;63200;48.810;12.352;2023-07-29T08:07:20;2.60;;;2.45;;
74674;SDS011;63200;48.810;12.352;2023-07-29T08:09:45;4.22;;;2.78;;
74674;SDS011;63200;48.810;12.352;2023-07-29T08:12:11;2.60;;;2.40;;
74674;SDS011;63200;48.810;12.352;2023-07-29T08:14:36;3.70;;;2.88;;
74674;SDS011;63200;48.810;12.352;2023-07-29T08:17:01;2.67;;;2.50;;
74674;SDS011;63200;48.810;12.352;2023-07-29T08:19:27;2.53;;;2.42;;
74674;SDS011;63200;48.810;12.352;2023-07-29T08:21:52;3.00;;;2.80;;
74674;SDS011;63200;48.810;12.352;2023-07-29T08:24:17;2.30;;;2.20;;
74674;SDS011;63200;48.810;12.352;2023-07-29T08:26:43;3.03;;;2.22;;
74674;SDS011;63200;48.810;12.352;2023-07-29T08:29:08;2.40;;;2.20;;
74674;SDS011;63200;48.810;12.352;2023-07-29T08:31:33;6.68;;;2.33;;
74674;SDS011;63200;48.810;12.352;2023-07-29T08:33:59;4.05;;;2.35;;
74674;SDS011;63200;48.810;12.352;2023-07-29T08:36:25;2.72;;;2.50;;
74674;SDS011;63200;48.810;12.352;2023-07-29T08:38:50;2.58;;;2.45;;
74674;SDS011;63200;48.810;12.352;2023-07-29T08:41:24;2.83;;;2.50;;
74674;SDS011;63200;48.810;12.352;2023-07-29T08:44:10;2.60;;;2.40;;
74674;SDS011;63200;48.810;12.352;2023-07-29T08:46:41;4.70;;;2.80;;
74674;SDS011;63200;48.810;12.352;2023-07-29T08:49:07;2.28;;;2.08;;
74674;SDS011;63200;48.810;12.352;2023-07-29T08:51:33;5.50;;;2.40;;
74674;SDS011;63200;48.810;12.352;2023-07-29T08:53:59;3.80;;;2.40;;
74674;SDS011;63200;48.810;12.352;2023-07-29T08:56:25;2.58;;;2.22;;
74674;SDS011;63200;48.810;12.352;2023-07-29T08:58:52;2.50;;;2.30;;
74674;SDS011;63200;48.810;12.352;2023-07-29T09:01:17;3.20;;;3.00;;
74674;SDS011;63200;48.810;12.352;2023-07-29T09:03:43;3.92;;;2.60;;
74674;SDS011;63200;48.810;12.352;2023-07-29T09:06:08;3.25;;;2.42;;
74674;SDS011;63200;48.810;12.352;2023-07-29T09:08:34;4.85;;;2.80;;
74674;SDS011;63200;48.810;12.352;2023-07-29T09:10:59;5.65;;;2.80;;
74674;SDS011;63200;48.810;12.352;2023-07-29T09:13:26;4.07;;;2.72;;
74674;SDS011;63200;48.810;12.352;2023-07-29T09:15:54;3.08;;;2.85;;
74674;SDS011;63200;48.810;12.352;2023-07-29T09:18:21;7.22;;;2.92;;
74674;SDS011;63200;48.810;12.352;2023-07-29T09:20:47;2.95;;;2.75;;
74674;SDS011;63200;48.810;12.352;2023-07-29T09:23:13;2.90;;;2.78;;
74674;SDS011;63200;48.810;12.352;2023-07-29T09:25:38;3.28;;;2.92;;
74674;SDS011;63200;48.810;12.352;2023-07-29T09:28:08;2.97;;;2.80;;
74674;SDS011;63200;48.810;12.352;2023-07-29T09:30:35;3.80;;;3.58;;
74674;SDS011;63200;48.810;12.352;2023-07-29T09:33:02;3.65;;;3.45;;
74674;SDS011;63200;48.810;12.352;2023-07-29T09:35:28;3.25;;;3.05;;
74674;SDS011;63200;48.810;12.352;2023-07-29T09:37:55;3.00;;;2.80;;
74674;SDS011;63200;48.810;12.352;2023-07-29T09:40:20;3.47;;;2.80;;
74674;SDS011;63200;48.810;12.352;2023-07-29T09:42:49;2.75;;;2.55;;
74674;SDS011;63200;48.810;12.352;2023-07-29T09:45:25;2.90;;;2.70;;
74674;SDS011;63200;48.810;12.352;2023-07-29T09:47:52;3.10;;;2.90;;
74674;SDS011;63200;48.810;12.352;2023-07-29T09:50:18;5.43;;;2.80;;
74674;SDS011;63200;48.810;12.352;2023-07-29T09:52:44;3.50;;;3.20;;
74674;SDS011;63200;48.810;12.352;2023-07-29T09:55:12;2.75;;;2.55;;
74674;SDS011;63200;48.810;12.352;2023-07-29T09:57:40;2.50;;;2.40;;
74674;SDS011;63200;48.810;12.352;2023-07-29T10:00:06;3.05;;;2.33;;
74674;SDS011;63200;48.810;12.352;2023-07-29T10:02:36;3.10;;;2.40;;
74674;SDS011;63200;48.810;12.352;2023-07-29T10:05:02;3.78;;;2.38;;
74674;SDS011;63200;48.810;12.352;2023-07-29T10:07:29;2.63;;;2.50;;
74674;SDS011;63200;48.810;12.352;2023-07-29T10:09:55;3.42;;;2.30;;
74674;SDS011;63200;48.810;12.352;2023-07-29T10:12:22;2.30;;;2.20;;
74674;SDS011;63200;48.810;12.352;2023-07-29T10:14:49;2.58;;;2.40;;
74674;SDS011;63200;48.810;12.352;2023-07-29T10:17:16;2.50;;;2.33;;
74674;SDS011;63200;48.810;12.352;2023-07-29T10:19:41;2.35;;;2.20;;
74674;SDS011;63200;48.810;12.352;2023-07-29T10:22:07;2.88;;;2.50;;
74674;SDS011;63200;48.810;12.352;2023-07-29T10:24:35;2.75;;;2.60;;
74674;SDS011;63200;48.810;12.352;2023-07-29T10:27:06;2.60;;;2.40;;
74674;SDS011;63200;48.810;12.352;2023-07-29T10:29:34;2.55;;;2.45;;
74674;SDS011;63200;48.810;12.352;2023-07-29T10:32:04;2.47;;;2.30;;
74674;SDS011;63200;48.810;12.352;2023-07-29T10:34:30;2.80;;;2.45;;
74674;SDS011;63200;48.810;12.352;2023-07-29T10:36:57;7.85;;;3.13;;
74674;SDS011;63200;48.810;12.352;2023-07-29T10:39:24;4.25;;;2.95;;
74674;SDS011;63200;48.810;12.352;2023-07-29T10:41:57;5.22;;;3.60;;
74674;SDS011;63200;48.810;12.352;2023-07-29T10:47:11;3.60;;;3.03;;
74674;SDS011;63200;48.810;12.352;2023-07-29T10:49:39;3.40;;;3.10;;
74674;SDS011;63200;48.810;12.352;2023-07-29T10:52:06;3.30;;;3.10;;
74674;SDS011;63200;48.810;12.352;2023-07-29T10:54:31;4.30;;;2.95;;
74674;SDS011;63200;48.810;12.352;2023-07-29T10:57:13;3.00;;;2.80;;
74674;SDS011;63200;48.810;12.352;2023-07-29T10:59:40;5.82;;;3.22;;
74674;SDS011;63200;48.810;12.352;2023-07-29T11:02:15;3.53;;;2.97;;
74674;SDS011;63200;48.810;12.352;2023-07-29T11:04:47;3.25;;;2.95;;
74674;SDS011;63200;48.810;12.352;2023-07-29T11:10:02;3.20;;;3.00;;
74674;SDS011;63200;48.810;12.352;2023-07-29T11:15:25;2.53;;;2.33;;
74674;SDS011;63200;48.810;12.352;2023-07-29T11:20:22;4.68;;;2.85;;
74674;SDS011;63200;48.810;12.352;2023-07-29T11:22:49;3.13;;;2.58;;
74674;SDS011;63200;48.810;12.352;2023-07-29T11:25:15;2.80;;;2.20;;
74674;SDS011;63200;48.810;12.352;2023-07-29T11:27:42;2.35;;;2.25;;
74674;SDS011;63200;48.810;12.352;2023-07-29T11:30:12;2.60;;;2.38;;
74674;SDS011;63200;48.810;12.352;2023-07-29T11:32:39;2.70;;;2.60;;
74674;SDS011;63200;48.810;12.352;2023-07-29T11:35:16;2.88;;;2.60;;
74674;SDS011;63200;48.810;12.352;2023-07-29T11:37:43;2.50;;;2.30;;
74674;SDS011;63200;48.810;12.352;2023-07-29T11:40:13;5.45;;;2.53;;
74674;SDS011;63200;48.810;12.352;2023-07-29T11:42:40;2.55;;;2.38;;
74674;SDS011;63200;48.810;12.352;2023-07-29T11:45:06;2.70;;;2.60;;
74674;SDS011;63200;48.810;12.352;2023-07-29T11:47:32;3.35;;;2.30;;
74674;SDS011;63200;48.810;12.352;2023-07-29T11:50:02;2.20;;;2.10;;
74674;SDS011;63200;48.810;12.352;2023-07-29T11:52:29;2.53;;;2.40;;
74674;SDS011;63200;48.810;12.352;2023-07-29T11:54:57;2.40;;;2.30;;
74674;SDS011;63200;48.810;12.352;2023-07-29T11:57:23;3.35;;;2.55;;
74674;SDS011;63200;48.810;12.352;2023-07-29T11:59:49;3.65;;;2.65;;
74674;SDS011;63200;48.810;12.352;2023-07-29T12:02:15;2.83;;;2.30;;
74674;SDS011;63200;48.810;12.352;2023-07-29T12:04:43;2.70;;;2.20;;
74674;SDS011;63200;48.810;12.352;2023-07-29T12:07:09;2.83;;;2.40;;
74674;SDS011;63200;48.810;12.352;2023-07-29T12:09:35;3.05;;;2.80;;
74674;SDS011;63200;48.810;12.352;2023-07-29T12:12:02;3.35;;;2.78;;
74674;SDS011;63200;48.810;12.352;2023-07-29T12:14:28;2.60;;;2.40;;
74674;SDS011;63200;48.810;12.352;2023-07-29T12:16:54;3.05;;;2.72;;
74674;SDS011;63200;48.810;12.352;2023-07-29T12:19:19;3.30;;;3.10;;
74674;SDS011;63200;48.810;12.352;2023-07-29T12:21:47;3.30;;;2.50;;
74674;SDS011;63200;48.810;12.352;2023-07-29T12:24:12;2.80;;;2.70;;
74674;SDS011;63200;48.810;12.352;2023-07-29T12:26:39;2.22;;;2.13;;
74674;SDS011;63200;48.810;12.352;2023-07-29T12:29:14;2.90;;;2.58;;
74674;SDS011;63200;48.810;12.352;2023-07-29T12:31:41;2.92;;;2.72;;
74674;SDS011;63200;48.810;12.352;2023-07-29T12:34:06;4.22;;;2.67;;
74674;SDS011;63200;48.810;12.352;2023-07-29T12:36:42;4.38;;;2.50;;
74674;SDS011;63200;48.810;12.352;2023-07-29T12:39:25;2.28;;;2.17;;
74674;SDS011;63200;48.810;12.352;2023-07-29T12:41:52;2.47;;;2.28;;
74674;SDS011;63200;48.810;12.352;2023-07-29T12:44:19;3.28;;;2.00;;
74674;SDS011;63200;48.810;12.352;2023-07-29T12:46:44;2.40;;;2.28;;
74674;SDS011;63200;48.810;12.352;2023-07-29T12:49:11;2.10;;;2.00;;
74674;SDS011;63200;48.810;12.352;2023-07-29T12:51:36;2.05;;;1.90;;
74674;SDS011;63200;48.810;12.352;2023-07-29T12:54:02;2.60;;;2.47;;
74674;SDS011;63200;48.810;12.352;2023-07-29T12:56:29;7.22;;;2.70;;
74674;SDS011;63200;48.810;12.352;2023-07-29T12:58:56;2.58;;;2.35;;
74674;SDS011;63200;48.810;12.352;2023-07-29T13:01:21;2.10;;;2.00;;
74674;SDS011;63200;48.810;12.352;2023-07-29T13:03:47;7.68;;;2.40;;
74674;SDS011;63200;48.810;12.352;2023-07-29T13:06:13;4.90;;;2.30;;
74674;SDS011;63200;48.810;12.352;2023-07-29T13:08:38;2.28;;;2.17;;
74674;SDS011;63200;48.810;12.352;2023-07-29T13:11:04;2.25;;;2.15;;
74674;SDS011;63200;48.810;12.352;2023-07-29T13:13:29;2.30;;;2.20;;
74674;SDS011;63200;48.810;12.352;2023-07-29T13:15:55;2.35;;;2.15;;
74674;SDS011;63200;48.810;12.352;2023-07-29T13:18:21;2.20;;;2.10;;
74674;SDS011;63200;48.810;12.352;2023-07-29T13:20:47;3.70;;;2.20;;
74674;SDS011;63200;48.810;12.352;2023-07-29T13:23:12;2.72;;;2.53;;
74674;SDS011;63200;48.810;12.352;2023-07-29T13:25:37;3.67;;;2.25;;
74674;SDS011;63200;48.810;12.352;2023-07-29T13:28:03;2.78;;;2.55;;
74674;SDS011;63200;48.810;12.352;2023-07-29T13:30:28;2.45;;;1.95;;
74674;SDS011;63200;48.810;12.352;2023-07-29T13:32:54;2.55;;;2.45;;
74674;SDS011;63200;48.810;12.352;2023-07-29T13:35:19;2.97;;;2.40;;
74674;SDS011;63200;48.810;12.352;2023-07-29T13:37:45;2.72;;;2.35;;
74674;SDS011;63200;48.810;12.352;2023-07-29T13:40:10;3.85;;;2.50;;
74674;SDS011;63200;48.810;12.352;2023-07-29T13:42:35;2.17;;;2.08;;
74674;SDS011;63200;48.810;12.352;2023-07-29T13:45:01;2.47;;;2.25;;
74674;SDS011;63200;48.810;12.352;2023-07-29T13:47:27;2.40;;;2.20;;
74674;SDS011;63200;48.810;12.352;2023-07-29T13:49:52;2.38;;;2.08;;
74674;SDS011;63200;48.810;12.352;2023-07-29T13:52:18;2.50;;;2.40;;
74674;SDS011;63200;48.810;12.352;2023-07-29T13:54:43;2.33;;;2.22;;
74674;SDS011;63200;48.810;12.352;2023-07-29T13:57:08;2.25;;;2.10;;
74674;SDS011;63200;48.810;12.352;2023-07-29T13:59:35;2.30;;;2.10;;
74674;SDS011;63200;48.810;12.352;2023-07-29T14:02:00;2.63;;;2.42;;
74674;SDS011;63200;48.810;12.352;2023-07-29T14:04:25;2.08;;;2.08;;
74674;SDS011;63200;48.810;12.352;2023-07-29T14:06:51;1.90;;;1.90;;
74674;SDS011;63200;48.810;12.352;2023-07-29T14:09:16;2.33;;;1.92;;
74674;SDS011;63200;48.810;12.352;2023-07-29T14:11:41;1.90;;;1.90;;
74674;SDS011;63200;48.810;12.352;2023-07-29T14:14:07;2.10;;;2.03;;
74674;SDS011;63200;48.810;12.352;2023-07-29T14:16:32;2.45;;;2.28;;
74674;SDS011;63200;48.810;12.352;2023-07-29T14:18:58;2.30;;;2.20;;
74674;SDS011;63200;48.810;12.352;2023-07-29T14:21:23;2.60;;;2.40;;
74674;SDS011;63200;48.810;12.352;2023-07-29T14:23:48;2.63;;;2.42;;
74674;SDS011;63200;48.810;12.352;2023-07-29T14:26:14;2.30;;;2.20;;
74674;SDS011;63200;48.810;12.352;2023-07-29T14:28:39;2.45;;;2.10;;
74674;SDS011;63200;48.810;12.352;2023-07-29T14:31:04;3.05;;;2.20;;
74674;SDS011;63200;48.810;12.352;2023-07-29T14:33:30;2.50;;;2.40;;
74674;SDS011;63200;48.810;12.352;2023-07-29T14:35:55;4.43;;;2.28;;
74674;SDS011;63200;48.810;12.352;2023-07-29T14:38:20;2.50;;;2.30;;
74674;SDS011;63200;48.810;12.352;2023-07-29T14:40:47;2.28;;;2.17;;
74674;SDS011;63200;48.810;12.352;2023-07-29T14:43:13;2.15;;;2.05;;
74674;SDS011;63200;48.810;12.352;2023-07-29T14:45:38;2.10;;;2.00;;
74674;SDS011;63200;48.810;12.352;2023-07-29T14:48:03;2.30;;;2.20;;